Time;durP1;ratioP1;P1;durP2;ratioP2;P2;SDS_P1;SDS_P2;PMS_P1;PMS_P2;Temp;Humidity;BMP_temperature;BMP_pressure;BME280_temperature;BME280_humidity;BME280_pressure;Samples;Min_cycle;Max_cycle;Signal;HPM_P1;HPM_P2
2022/12/11 00:01:23;;;;;;;17.73;6.90;;;10.50;99.90;;;;;;4160974;28;20123;-62
2022/12/11 00:03:24;;;;;;;16.57;6.33;;;10.50;99.90;;;;;;4160141;28;20083;-61
2022/12/11 00:05:25;;;;;;;14.20;5.97;;;10.50;99.90;;;;;;4160969;28;20041;-61
2022/12/11 00:07:26;;;;;;;10.70;5.57;;;10.40;99.90;;;;;;4160730;28;20099;-61
2022/12/11 00:09:28;;;;;;;9.53;5.97;;;10.40;99.90;;;;;;4160684;28;20037;-60
2022/12/11 00:11:29;;;;;;;11.17;5.43;;;10.40;99.90;;;;;;4160691;28;20067;-60
2022/12/11 00:13:31;;;;;;;14.73;6.43;;;10.30;99.90;;;;;;4160351;28;20041;-61
2022/12/11 00:15:32;;;;;;;12.57;5.33;;;10.30;99.90;;;;;;4160485;28;20037;-62
2022/12/11 00:17:34;;;;;;;13.37;6.00;;;10.30;99.90;;;;;;4159960;28;20037;-61
2022/12/11 00:19:35;;;;;;;16.43;6.60;;;10.30;99.90;;;;;;4160727;28;20045;-62
2022/12/11 00:21:36;;;;;;;10.50;5.33;;;10.30;99.90;;;;;;4160358;28;20103;-61
2022/12/11 00:23:37;;;;;;;12.83;5.67;;;10.30;99.90;;;;;;4164361;28;20068;-61
2022/12/11 00:25:43;;;;;;;10.53;5.90;;;10.30;99.90;;;;;;4162974;28;20571;-62
2022/12/11 00:27:46;;;;;;;11.20;6.03;;;10.20;99.90;;;;;;4164138;28;20049;-62
2022/12/11 00:29:47;;;;;;;13.13;7.00;;;10.20;99.90;;;;;;4163246;28;20374;-61
2022/12/11 00:31:48;;;;;;;12.33;6.37;;;10.20;99.90;;;;;;4163756;28;20037;-63
2022/12/11 00:33:50;;;;;;;15.17;5.73;;;10.10;99.90;;;;;;4162702;28;20084;-61
2022/12/11 00:35:51;;;;;;;17.47;6.90;;;10.10;99.90;;;;;;4163909;28;20092;-62
2022/12/11 00:37:52;;;;;;;14.60;7.10;;;10.00;99.90;;;;;;4163018;28;20038;-63
2022/12/11 00:39:53;;;;;;;15.60;7.50;;;10.00;99.90;;;;;;4164244;28;20021;-62
2022/12/11 00:41:54;;;;;;;16.30;6.83;;;10.00;99.90;;;;;;4162733;28;20045;-62
2022/12/11 00:43:56;;;;;;;15.33;6.97;;;10.10;99.90;;;;;;4163233;28;20042;-62
2022/12/11 00:45:57;;;;;;;17.47;7.10;;;10.10;99.90;;;;;;4162952;28;20037;-61
2022/12/11 00:47:58;;;;;;;14.87;6.60;;;10.00;99.90;;;;;;4163394;28;20037;-61
2022/12/11 00:49:59;;;;;;;15.87;6.53;;;10.00;99.90;;;;;;4163308;28;20096;-62
2022/12/11 00:52:00;;;;;;;11.77;6.23;;;10.00;99.90;;;;;;4162517;28;20049;-62
2022/12/11 00:54:02;;;;;;;11.43;6.10;;;10.10;99.90;;;;;;4163933;28;20468;-62
2022/12/11 00:56:17;;;;;;;12.20;6.00;;;10.10;99.90;;;;;;4162935;28;20062;-61
2022/12/11 00:58:18;;;;;;;18.43;6.23;;;10.10;99.90;;;;;;4163690;28;20436;-62
2022/12/11 01:00:21;;;;;;;8.30;5.53;;;10.10;99.90;;;;;;4162369;28;20444;-61
2022/12/11 01:02:22;;;;;;;11.07;5.83;;;10.20;99.90;;;;;;4163424;28;20447;-62
2022/12/11 01:04:23;;;;;;;10.20;5.40;;;10.10;99.90;;;;;;4162258;28;20083;-63
2022/12/11 01:06:26;;;;;;;10.67;5.73;;;10.10;99.90;;;;;;4163566;28;20092;-62
2022/12/11 01:08:28;;;;;;;11.00;5.70;;;10.10;99.90;;;;;;4162731;28;20099;-62
2022/12/11 01:10:30;;;;;;;13.33;6.03;;;10.20;99.90;;;;;;4163893;28;20026;-62
2022/12/11 01:12:31;;;;;;;8.27;4.90;;;10.20;99.90;;;;;;4162684;28;20079;-62
2022/12/11 01:14:32;;;;;;;13.23;6.40;;;10.20;99.90;;;;;;4163595;28;20086;-62
2022/12/11 01:16:33;;;;;;;10.87;6.40;;;10.20;99.90;;;;;;4162246;28;20428;-61
2022/12/11 01:18:35;;;;;;;8.77;5.20;;;10.20;99.90;;;;;;4162897;28;20041;-62
2022/12/11 01:20:38;;;;;;;12.87;5.67;;;10.20;99.90;;;;;;4162531;28;20029;-61
2022/12/11 01:22:40;;;;;;;13.70;5.90;;;10.20;99.90;;;;;;4162805;28;20072;-61
2022/12/11 01:24:41;;;;;;;13.57;5.47;;;10.20;99.90;;;;;;4162754;28;20095;-61
2022/12/11 01:26:42;;;;;;;14.80;6.20;;;10.30;99.90;;;;;;4162211;28;20041;-61
2022/12/11 01:28:43;;;;;;;11.27;5.37;;;10.20;99.90;;;;;;4163059;28;20088;-62
2022/12/11 01:30:44;;;;;;;11.13;5.33;;;10.30;99.90;;;;;;4161964;28;20049;-61
2022/12/11 01:32:46;;;;;;;9.77;5.87;;;10.20;99.90;;;;;;4163260;28;20041;-61
2022/12/11 01:34:47;;;;;;;12.10;6.10;;;10.20;99.90;;;;;;4160877;28;20045;-61
2022/12/11 01:36:50;;;;;;;11.93;6.23;;;10.20;99.90;;;;;;4162888;28;20083;-61
2022/12/11 01:38:53;;;;;;;12.57;5.77;;;10.20;99.90;;;;;;4162306;28;20103;-61
2022/12/11 01:40:54;;;;;;;15.87;5.70;;;10.20;99.90;;;;;;4163101;28;20033;-61
2022/12/11 01:42:55;;;;;;;14.70;7.00;;;10.20;99.90;;;;;;4161628;28;20099;-61
2022/12/11 01:45:21;;;;;;;10.43;5.60;;;10.20;99.90;;;;;;4162889;28;20103;-60
2022/12/11 01:47:22;;;;;;;14.10;6.27;;;10.20;99.90;;;;;;4162131;28;20037;-61
2022/12/11 01:49:26;;;;;;;11.87;6.03;;;10.20;99.90;;;;;;4162850;28;20091;-61
2022/12/11 01:51:30;;;;;;;13.90;6.23;;;10.20;99.90;;;;;;4161983;28;20025;-60
2022/12/11 01:53:39;;;;;;;11.60;6.57;;;10.20;99.90;;;;;;4162374;28;20493;-62
2022/12/11 01:55:40;;;;;;;11.47;6.30;;;10.20;99.90;;;;;;4161688;28;20091;-62
2022/12/11 01:57:46;;;;;;;10.77;6.10;;;10.30;99.90;;;;;;4162944;28;20084;-62
2022/12/11 01:59:47;;;;;;;9.53;5.17;;;10.30;99.90;;;;;;4161709;28;20033;-62
2022/12/11 02:01:58;;;;;;;11.70;6.27;;;10.30;99.90;;;;;;4161819;28;20041;-62
2022/12/11 02:03:59;;;;;;;;;;;10.30;99.90;;;;;;4162679;28;20022;-61
2022/12/11 02:06:01;;;;;;;10.47;5.17;;;10.30;99.90;;;;;;4162187;28;19905;-62
2022/12/11 02:08:03;;;;;;;10.63;5.17;;;10.40;99.90;;;;;;4162350;28;20037;-61
2022/12/11 02:10:05;;;;;;;11.47;5.43;;;10.60;99.90;;;;;;4161819;28;20108;-62
2022/12/11 02:12:27;;;;;;;13.10;5.57;;;10.60;99.90;;;;;;4162374;28;20025;-60
2022/12/11 02:14:59;;;;;;;11.70;5.33;;;10.50;99.90;;;;;;4162435;28;20083;-61
2022/12/11 02:17:10;;;;;;;10.07;5.27;;;10.50;99.90;;;;;;4161751;28;20037;-61
2022/12/11 02:19:38;;;;;;;12.57;6.00;;;10.50;99.90;;;;;;4162153;28;20038;-62
2022/12/11 02:21:48;;;;;;;11.70;5.43;;;10.40;99.90;;;;;;4159894;28;20103;-62
2022/12/11 02:23:55;;;;;;;16.02;6.35;;;10.30;99.90;;;;;;4162194;28;20050;-61
2022/12/11 02:26:21;;;;;;;11.87;5.57;;;10.20;99.90;;;;;;4161028;28;20041;-61
2022/12/11 02:28:29;;;;;;;10.17;5.33;;;10.20;99.90;;;;;;4162185;28;20030;-61
2022/12/11 02:30:33;;;;;;;12.37;5.90;;;10.20;99.90;;;;;;4161033;28;20034;-61
2022/12/11 02:32:49;;;;;;;10.50;5.40;;;10.20;99.90;;;;;;4162135;28;20041;-62
2022/12/11 02:35:01;;;;;;;10.87;6.00;;;10.20;99.90;;;;;;4161386;28;20083;-62
2022/12/11 02:37:11;;;;;;;11.90;5.77;;;10.20;99.90;;;;;;4162007;28;20091;-60
2022/12/11 02:39:15;;;;;;;7.05;5.68;;;10.20;99.90;;;;;;4161737;28;20371;-60
2022/12/11 02:41:19;;;;;;;11.73;5.00;;;10.20;99.90;;;;;;4162507;28;20432;-61
2022/12/11 02:43:22;;;;;;;11.40;5.27;;;10.20;99.90;;;;;;4160717;28;20363;-61
2022/12/11 02:45:25;;;;;;;10.10;5.50;;;10.20;99.90;;;;;;4162040;28;20033;-61
2022/12/11 02:47:28;;;;;;;11.67;5.27;;;10.20;99.90;;;;;;4160944;28;20022;-61
2022/12/11 02:49:31;;;;;;;7.73;4.67;;;10.20;99.90;;;;;;4161655;28;20099;-61
2022/12/11 02:51:38;;;;;;;7.57;4.43;;;10.20;99.90;;;;;;4161375;28;20076;-61
2022/12/11 02:53:42;;;;;;;11.37;5.17;;;10.30;99.90;;;;;;4161452;28;20096;-61
2022/12/11 02:55:46;;;;;;;15.03;4.77;;;10.30;99.90;;;;;;4161159;28;20041;-61
2022/12/11 02:57:58;;;;;;;7.97;5.00;;;10.30;99.90;;;;;;4161461;28;20095;-61
2022/12/11 03:00:00;;;;;;;12.47;4.77;;;10.30;99.90;;;;;;4161172;28;20041;-61
2022/12/11 03:02:02;;;;;;;9.03;4.73;;;10.40;99.90;;;;;;4161289;28;20038;-62
2022/12/11 03:04:03;;;;;;;12.53;5.20;;;10.30;99.90;;;;;;4161697;28;20038;-64
2022/12/11 03:06:05;;;;;;;9.10;5.17;;;10.30;99.90;;;;;;4160906;28;20059;-62
2022/12/11 03:08:06;;;;;;;11.67;5.03;;;10.30;99.90;;;;;;4161367;28;20390;-61
2022/12/11 03:10:10;;;;;;;8.30;4.57;;;10.30;99.90;;;;;;4161405;28;20041;-61
2022/12/11 03:12:15;;;;;;;12.90;6.07;;;10.30;99.90;;;;;;4161907;28;20455;-61
2022/12/11 03:14:16;;;;;;;9.70;4.97;;;10.20;99.90;;;;;;4160332;28;20042;-61
2022/12/11 03:16:34;;;;;;;9.37;4.67;;;10.20;99.90;;;;;;4161726;28;20022;-63
2022/12/11 03:18:50;;;;;;;7.87;4.63;;;10.20;99.90;;;;;;4160253;28;20100;-62
2022/12/11 03:21:04;;;;;;;12.83;6.07;;;10.20;99.90;;;;;;4161933;28;20084;-62
2022/12/11 03:23:51;;;;;;;10.87;4.93;;;10.20;99.90;;;;;;4160161;28;20049;-66
2022/12/11 03:26:04;;;;;;;11.13;4.73;;;10.20;99.90;;;;;;4148384;28;20042;-62
2022/12/11 03:28:19;;;;;;;11.90;5.00;;;10.10;99.90;;;;;;4161032;28;20107;-62
2022/12/11 03:30:22;;;;;;;9.87;5.57;;;10.10;99.90;;;;;;4161056;28;20040;-62
2022/12/11 03:32:28;;;;;;;13.97;5.13;;;10.10;99.90;;;;;;4161073;28;20033;-63
2022/12/11 03:34:37;;;;;;;8.43;4.53;;;10.10;99.90;;;;;;4160957;28;20088;-63
2022/12/11 03:36:39;;;;;;;14.63;4.63;;;10.10;99.90;;;;;;4160400;28;20041;-63
2022/12/11 03:38:50;;;;;;;11.07;4.80;;;10.10;99.90;;;;;;4160770;28;20102;-61
2022/12/11 03:40:55;;;;;;;9.70;4.73;;;10.20;99.90;;;;;;4160571;28;20048;-62
2022/12/11 03:42:57;;;;;;;12.93;5.07;;;10.20;99.90;;;;;;4161353;28;20532;-62
2022/12/11 03:44:59;;;;;;;10.30;5.40;;;10.30;99.90;;;;;;4160195;28;20182;-62
2022/12/11 03:47:04;;;;;;;8.10;4.23;;;10.30;99.90;;;;;;4161542;28;20094;-63
2022/12/11 03:49:16;;;;;;;6.17;3.97;;;10.30;99.90;;;;;;4160398;28;20022;-62
2022/12/11 03:51:18;;;;;;;9.43;4.00;;;10.40;99.90;;;;;;4161153;28;20095;-62
2022/12/11 03:53:20;;;;;;;8.33;4.17;;;10.50;99.90;;;;;;4160109;28;20505;-62
2022/12/11 03:55:22;;;;;;;11.73;4.47;;;10.60;99.90;;;;;;4161415;28;20538;-62
2022/12/11 03:57:27;;;;;;;6.60;3.47;;;10.60;99.90;;;;;;4161371;28;20551;-62
2022/12/11 03:59:29;;;;;;;9.90;4.50;;;10.60;99.90;;;;;;4164318;28;20033;-62
2022/12/11 04:01:30;;;;;;;8.70;3.93;;;10.70;99.90;;;;;;4163835;28;20022;-63
2022/12/11 04:03:31;;;;;;;9.83;4.80;;;10.70;99.90;;;;;;4164780;28;20155;-61
2022/12/11 04:05:32;;;;;;;8.47;4.40;;;10.70;99.90;;;;;;4163248;28;20041;-62
2022/12/11 04:07:33;;;;;;;9.03;4.30;;;10.60;99.90;;;;;;4164382;28;20111;-63
2022/12/11 04:09:35;;;;;;;10.80;4.93;;;10.50;99.90;;;;;;4164147;28;20481;-62
2022/12/11 04:11:37;;;;;;;12.97;4.53;;;10.40;99.90;;;;;;4164001;28;20029;-62
2022/12/11 04:13:39;;;;;;;11.63;6.30;;;10.20;99.90;;;;;;4163960;28;20025;-63
2022/12/11 04:15:40;;;;;;;11.40;5.70;;;10.10;99.90;;;;;;4163566;28;20379;-62
2022/12/11 04:24:41;;;;;;;11.47;5.33;;;9.70;99.90;;;;;;4164279;28;20033;-62
2022/12/11 04:26:46;;;;;;;11.47;5.93;;;9.70;99.90;;;;;;4163193;28;20092;-62
2022/12/11 04:28:48;;;;;;;11.23;5.50;;;9.70;99.90;;;;;;4163349;28;20037;-64
2022/12/11 04:30:49;;;;;;;8.00;5.20;;;9.70;99.90;;;;;;4163374;28;20095;-62
2022/12/11 04:32:52;;;;;;;9.33;5.30;;;9.70;99.90;;;;;;4163557;28;20091;-63
2022/12/11 04:34:53;;;;;;;11.87;5.33;;;9.70;99.90;;;;;;4163584;28;20084;-62
2022/12/11 04:36:54;;;;;;;12.37;6.10;;;9.70;99.90;;;;;;4163115;28;20543;-62
2022/12/11 04:38:55;;;;;;;13.27;5.67;;;9.70;99.90;;;;;;4163807;28;20100;-61
2022/12/11 04:41:09;;;;;;;10.27;5.27;;;9.70;99.90;;;;;;4163644;28;20025;-62
2022/12/11 04:43:10;;;;;;;8.47;5.23;;;9.80;99.90;;;;;;4163965;28;20551;-61
2022/12/11 04:45:12;;;;;;;9.53;4.77;;;9.80;99.90;;;;;;4162781;28;20091;-62
2022/12/11 04:47:13;;;;;;;12.17;5.63;;;9.70;99.90;;;;;;4163930;28;20045;-62
2022/12/11 04:49:14;;;;;;;12.40;6.23;;;9.70;99.90;;;;;;4163085;28;20041;-62
2022/12/11 04:51:15;;;;;;;9.87;5.30;;;9.70;99.90;;;;;;4163842;28;20099;-62
2022/12/11 04:53:16;;;;;;;15.17;5.50;;;9.70;99.90;;;;;;4162648;28;20049;-62
2022/12/11 04:55:18;;;;;;;12.97;5.00;;;9.60;99.90;;;;;;4163694;28;20425;-62
2022/12/11 04:57:20;;;;;;;9.17;5.23;;;9.60;99.90;;;;;;4162747;28;20107;-62
2022/12/11 04:59:21;;;;;;;11.57;5.57;;;9.60;99.90;;;;;;4163495;28;20037;-62
2022/12/11 05:01:22;;;;;;;11.83;5.40;;;9.60;99.90;;;;;;4162606;28;20041;-63
2022/12/11 05:03:23;;;;;;;11.23;5.47;;;9.60;99.90;;;;;;4162950;28;20049;-63
2022/12/11 05:05:25;;;;;;;12.77;5.67;;;9.60;99.90;;;;;;4163229;28;20079;-61
2022/12/11 05:07:26;;;;;;;11.47;5.87;;;9.60;99.90;;;;;;4162552;28;20437;-61
2022/12/11 05:09:28;;;;;;;30.20;12.03;;;9.50;99.90;;;;;;4163224;28;20037;-61
2022/12/11 05:11:29;;;;;;;21.50;10.60;;;9.50;99.90;;;;;;4162728;28;20045;-61
2022/12/11 05:13:30;;;;;;;13.10;7.10;;;9.60;99.90;;;;;;4163664;28;20420;-61
2022/12/11 05:15:31;;;;;;;12.57;5.47;;;9.60;99.90;;;;;;4162619;28;20060;-62
2022/12/11 05:17:33;;;;;;;9.33;6.17;;;9.60;99.90;;;;;;4163221;28;20038;-61
2022/12/11 05:19:34;;;;;;;13.47;5.23;;;9.60;99.90;;;;;;4162524;28;20083;-61
2022/12/11 05:21:35;;;;;;;11.77;5.70;;;9.60;99.90;;;;;;4163181;28;20045;-61
2022/12/11 05:23:37;;;;;;;9.30;5.80;;;9.50;99.90;;;;;;4161957;28;20045;-61
2022/12/11 05:25:38;;;;;;;11.57;5.80;;;9.60;99.90;;;;;;4163286;28;20049;-61
2022/12/11 05:27:39;;;;;;;11.40;5.83;;;9.60;99.90;;;;;;4162060;28;20070;-62
2022/12/11 05:29:40;;;;;;;10.47;6.43;;;9.50;99.90;;;;;;4162945;28;20037;-62
2022/12/11 05:31:41;;;;;;;10.90;5.40;;;9.50;99.90;;;;;;4162026;28;20021;-61
2022/12/11 05:33:43;;;;;;;10.43;4.87;;;9.60;99.90;;;;;;4162564;28;20091;-61
2022/12/11 05:35:48;;;;;;;11.60;5.30;;;9.60;99.90;;;;;;4162244;28;20045;-62
2022/12/11 05:37:49;;;;;;;8.57;4.70;;;9.60;99.90;;;;;;4162417;28;20474;-61
2022/12/11 05:39:50;;;;;;;12.07;6.77;;;9.60;99.90;;;;;;4162605;28;20367;-62
2022/12/11 05:41:51;;;;;;;13.13;5.27;;;9.60;99.90;;;;;;4162567;28;20034;-63
2022/12/11 05:43:52;;;;;;;9.53;5.27;;;9.60;99.90;;;;;;4162721;28;20075;-62
2022/12/11 05:45:55;;;;;;;11.20;5.40;;;9.70;99.90;;;;;;4161515;28;20041;-61
2022/12/11 05:47:56;;;;;;;11.73;6.20;;;9.70;99.90;;;;;;4162765;28;20112;-63
2022/12/11 05:49:57;;;;;;;14.80;5.40;;;9.70;99.90;;;;;;4161622;28;20094;-61
2022/12/11 05:51:58;;;;;;;10.17;5.70;;;9.80;99.90;;;;;;4162713;28;20033;-62
2022/12/11 05:54:00;;;;;;;12.80;7.80;;;9.80;99.90;;;;;;4160066;28;20053;-62
2022/12/11 05:56:14;;;;;;;14.50;7.60;;;9.80;99.90;;;;;;4162628;28;20049;-61
2022/12/11 05:58:15;;;;;;;16.80;7.50;;;9.80;99.90;;;;;;4161480;28;20559;-61
2022/12/11 06:00:16;;;;;;;11.33;6.23;;;9.80;99.90;;;;;;4162617;28;20087;-62
2022/12/11 06:02:17;;;;;;;11.00;6.40;;;9.80;99.90;;;;;;4161783;28;20033;-62
2022/12/11 06:04:18;;;;;;;15.20;6.80;;;9.80;99.90;;;;;;4162217;28;20049;-62
2022/12/11 06:06:20;;;;;;;9.77;5.30;;;9.80;99.90;;;;;;4160276;28;20143;-61
2022/12/11 06:08:21;;;;;;;16.93;6.10;;;9.80;99.90;;;;;;4162018;28;20193;-62
2022/12/11 06:10:22;;;;;;;8.83;5.47;;;9.90;99.90;;;;;;4162028;28;20029;-61
2022/12/11 06:12:23;;;;;;;12.63;4.90;;;9.90;99.90;;;;;;4161701;28;20555;-62
2022/12/11 06:14:24;;;;;;;8.90;3.80;;;9.90;99.90;;;;;;4161687;28;20087;-62
2022/12/11 06:16:25;;;;;;;9.30;3.47;;;10.00;99.90;;;;;;4161069;28;20037;-62
2022/12/11 06:18:27;;;;;;;8.20;3.50;;;10.10;99.90;;;;;;4162418;28;20346;-62
2022/12/11 06:20:32;;;;;;;7.57;3.30;;;10.20;99.90;;;;;;4160331;28;20521;-62
2022/12/11 06:22:33;;;;;;;5.33;2.97;;;10.30;99.90;;;;;;4161961;28;20041;-62
2022/12/11 06:24:34;;;;;;;6.87;3.37;;;10.40;99.90;;;;;;4161349;28;20045;-61
2022/12/11 06:26:35;;;;;;;8.30;3.83;;;10.40;99.90;;;;;;4162293;28;20448;-63
2022/12/11 06:28:37;;;;;;;4.70;3.07;;;10.50;99.90;;;;;;4161414;28;20029;-61
2022/12/11 06:30:38;;;;;;;8.27;2.80;;;10.50;99.90;;;;;;4162139;28;20045;-62
2022/12/11 06:32:39;;;;;;;6.57;3.20;;;10.50;99.90;;;;;;4160984;28;20041;-62
2022/12/11 06:34:40;;;;;;;14.93;4.70;;;10.60;99.90;;;;;;4162079;28;20504;-62
2022/12/11 06:36:41;;;;;;;12.60;5.63;;;10.50;99.90;;;;;;4161138;28;20060;-62
2022/12/11 06:38:43;;;;;;;10.77;6.00;;;10.50;99.90;;;;;;4161575;28;20042;-62
2022/12/11 06:40:44;;;;;;;10.43;6.13;;;10.40;99.90;;;;;;4161450;28;20021;-62
2022/12/11 06:42:45;;;;;;;15.43;4.77;;;10.40;99.90;;;;;;4161377;28;20042;-62
2022/12/11 06:44:46;;;;;;;7.23;4.33;;;10.40;99.90;;;;;;4161202;28;20445;-62
2022/12/11 06:46:47;;;;;;;8.63;3.70;;;10.40;99.90;;;;;;4160797;28;20038;-63
2022/12/11 06:48:49;;;;;;;7.63;3.70;;;10.50;99.90;;;;;;4161460;28;20557;-62
2022/12/11 06:50:50;;;;;;;7.03;4.10;;;10.50;99.90;;;;;;4160402;28;20477;-63
2022/12/11 06:52:52;;;;;;;5.03;3.20;;;10.60;99.90;;;;;;4161360;28;20072;-64
2022/12/11 06:54:53;;;;;;;9.63;4.47;;;10.70;99.90;;;;;;4160294;28;20046;-62
2022/12/11 06:56:54;;;;;;;17.67;9.27;;;10.70;99.90;;;;;;4161541;28;20033;-61
2022/12/11 06:58:56;;;;;;;13.63;5.57;;;10.80;99.90;;;;;;4160718;28;20465;-61
2022/12/11 07:00:57;;;;;;;12.03;3.87;;;10.80;99.90;;;;;;4161932;28;20045;-61
2022/12/11 07:02:58;;;;;;;9.53;4.60;;;10.80;99.90;;;;;;4160783;28;20075;-63
2022/12/11 07:04:59;;;;;;;9.03;5.23;;;10.80;99.90;;;;;;4161679;28;20041;-62
2022/12/11 07:07:00;;;;;;;12.70;6.40;;;10.80;99.90;;;;;;4160251;28;20045;-60
2022/12/11 07:09:04;;;;;;;14.33;6.07;;;10.70;99.90;;;;;;4161077;28;20033;-62
2022/12/11 07:11:11;;;;;;;17.17;6.30;;;10.70;99.90;;;;;;4161031;28;20013;-61
2022/12/11 07:13:12;;;;;;;8.03;3.10;;;10.80;99.90;;;;;;4161705;28;20084;-61
2022/12/11 07:15:13;;;;;;;8.90;4.87;;;10.80;99.90;;;;;;4160990;28;20063;-62
2022/12/11 07:17:15;;;;;;;4.17;2.23;;;10.80;99.90;;;;;;4161129;28;20536;-60
2022/12/11 07:19:16;;;;;;;9.67;3.50;;;10.80;99.90;;;;;;4161032;28;20115;-62
2022/12/11 07:21:19;;;;;;;1.13;1.03;;;10.80;99.90;;;;;;4160419;28;20505;-63
2022/12/11 07:23:20;;;;;;;0.60;0.30;;;10.80;99.90;;;;;;4161511;28;20041;-61
2022/12/11 07:25:21;;;;;;;1.50;0.20;;;10.80;99.90;;;;;;4160702;28;20178;-62
2022/12/11 07:27:22;;;;;;;0.27;0.10;;;10.80;99.90;;;;;;4161186;28;20084;-62
2022/12/11 07:29:23;;;;;;;0.10;0.10;;;10.90;99.90;;;;;;4160573;28;20491;-63
2022/12/11 07:31:27;;;;;;;0.10;0.03;;;10.80;99.90;;;;;;4160379;28;20194;-62
2022/12/11 07:33:28;;;;;;;0.40;0.13;;;10.80;99.90;;;;;;4160005;28;20030;-61
2022/12/11 07:35:30;;;;;;;0.10;0.00;;;10.80;99.90;;;;;;4161665;28;20425;-61
2022/12/11 07:37:31;;;;;;;0.27;0.10;;;10.80;99.90;;;;;;4160263;28;20056;-62
2022/12/11 07:39:32;;;;;;;0.00;0.00;;;10.80;99.90;;;;;;4161735;28;20038;-62
2022/12/11 07:41:33;;;;;;;0.00;0.00;;;10.70;99.90;;;;;;4160800;28;20029;-62
2022/12/11 07:43:35;;;;;;;0.00;0.00;;;10.60;99.90;;;;;;4160663;28;20041;-62
2022/12/11 07:45:36;;;;;;;0.20;0.00;;;10.60;99.90;;;;;;4160178;28;20050;-61
2022/12/11 07:47:37;;;;;;;0.33;0.00;;;10.60;99.90;;;;;;4160387;28;20099;-61
2022/12/11 07:49:38;;;;;;;0.00;0.00;;;10.50;99.90;;;;;;4160845;28;20444;-61
2022/12/11 07:51:41;;;;;;;0.20;0.00;;;10.50;99.90;;;;;;4159761;28;20083;-62
2022/12/11 07:53:44;;;;;;;0.20;0.07;;;10.50;99.90;;;;;;4160864;28;20107;-62
2022/12/11 07:55:45;;;;;;;1.17;0.10;;;10.50;99.90;;;;;;4159645;28;20477;-61
2022/12/11 07:57:46;;;;;;;0.00;0.00;;;10.40;99.90;;;;;;4159160;28;20080;-62
2022/12/11 07:59:47;;;;;;;0.20;0.10;;;10.30;99.90;;;;;;4159552;28;20471;-62
2022/12/11 08:01:48;;;;;;;0.37;0.10;;;10.30;99.90;;;;;;4161173;28;20485;-61
2022/12/11 08:03:50;;;;;;;0.50;0.27;;;10.20;99.90;;;;;;4160246;28;20041;-61
2022/12/11 08:05:52;;;;;;;0.40;0.20;;;10.10;99.90;;;;;;4160916;28;20436;-62
2022/12/11 08:07:53;;;;;;;0.20;0.00;;;10.10;99.90;;;;;;4159648;28;20095;-62
2022/12/11 08:09:54;;;;;;;0.30;0.10;;;10.00;99.90;;;;;;4161439;28;20030;-62
2022/12/11 08:11:55;;;;;;;2.93;0.93;;;9.90;99.90;;;;;;4160608;28;20102;-62
2022/12/11 08:13:58;;;;;;;0.20;0.00;;;9.90;99.90;;;;;;4160989;28;20075;-61
2022/12/11 08:16:04;;;;;;;2.13;0.80;;;9.80;99.90;;;;;;4160245;28;20103;-62
2022/12/11 08:18:05;;;;;;;0.77;0.00;;;9.70;99.90;;;;;;4160770;28;20056;-62
2022/12/11 08:20:07;;;;;;;0.30;0.00;;;9.60;99.90;;;;;;4159750;28;20433;-63
2022/12/11 08:22:08;;;;;;;0.10;0.03;;;9.60;99.90;;;;;;4160284;28;20084;-62
2022/12/11 08:24:10;;;;;;;0.23;0.00;;;9.60;99.90;;;;;;4160824;28;20095;-63
2022/12/11 08:26:17;;;;;;;0.23;0.10;;;9.60;99.90;;;;;;4160119;28;20029;-63
2022/12/11 08:28:18;;;;;;;0.40;0.00;;;9.50;99.90;;;;;;4160457;28;20034;-62
2022/12/11 08:30:19;;;;;;;1.20;0.00;;;9.50;99.90;;;;;;4159813;28;20666;-62
2022/12/11 08:32:20;;;;;;;0.50;0.10;;;9.50;99.90;;;;;;4160963;28;20075;-62
2022/12/11 08:34:22;;;;;;;0.27;0.20;;;9.50;99.90;;;;;;4159767;28;20080;-61
2022/12/11 08:36:23;;;;;;;1.17;0.50;;;9.50;99.90;;;;;;4160966;28;20096;-61
2022/12/11 08:38:24;;;;;;;0.80;0.43;;;9.50;99.90;;;;;;4159563;28;20080;-61
2022/12/11 08:40:25;;;;;;;0.37;0.20;;;9.50;99.90;;;;;;4160655;28;20091;-62
2022/12/11 08:42:26;;;;;;;0.80;0.33;;;9.60;99.90;;;;;;4160258;28;20072;-62
2022/12/11 08:44:28;;;;;;;0.87;0.57;;;9.60;99.90;;;;;;4163870;28;20037;-62
2022/12/11 08:46:31;;;;;;;2.10;1.07;;;9.60;99.90;;;;;;4162466;28;20100;-62
2022/12/11 08:48:33;;;;;;;6.63;3.20;;;9.60;99.90;;;;;;4163559;28;20037;-62
2022/12/11 08:50:36;;;;;;;6.13;3.07;;;9.60;99.90;;;;;;4162502;28;20033;-62
2022/12/11 08:52:37;;;;;;;1.33;1.03;;;9.60;99.90;;;;;;4162906;28;20037;-63
2022/12/11 08:54:38;;;;;;;2.20;0.67;;;9.60;99.90;;;;;;4162421;28;20041;-61
2022/12/11 08:56:39;;;;;;;1.13;0.50;;;9.60;99.90;;;;;;4162465;28;20045;-62
2022/12/11 08:58:42;;;;;;;1.73;1.13;;;9.60;99.90;;;;;;4162560;28;20107;-62
2022/12/11 09:00:43;;;;;;;1.13;0.30;;;9.60;99.90;;;;;;4161946;28;20540;-63
2022/12/11 09:02:44;;;;;;;0.80;0.10;;;9.60;99.90;;;;;;4163437;28;20130;-62
2022/12/11 09:04:45;;;;;;;0.20;0.20;;;9.60;99.90;;;;;;4162305;28;20033;-62
2022/12/11 09:06:46;;;;;;;5.03;0.40;;;9.40;99.90;;;;;;4162901;28;20045;-60
2022/12/11 09:08:49;;;;;;;0.77;0.20;;;9.30;99.90;;;;;;4161700;28;20466;-62
2022/12/11 09:10:51;;;;;;;0.30;0.27;;;9.10;99.90;;;;;;4162998;28;20041;-62
2022/12/11 09:12:52;;;;;;;0.67;0.40;;;9.10;99.90;;;;;;4162509;28;20029;-62
2022/12/11 09:14:54;;;;;;;1.70;0.97;;;9.00;99.90;;;;;;4159131;28;20485;-65
2022/12/11 09:16:55;;;;;;;2.03;0.60;;;9.00;99.90;;;;;;4129848;28;20031;-62
2022/12/11 09:18:57;;;;;;;1.43;0.80;;;9.00;99.90;;;;;;4131065;28;20046;-62
2022/12/11 09:21:01;;;;;;;1.90;1.43;;;9.10;99.90;;;;;;4127724;28;20466;-63
2022/12/11 09:23:02;;;;;;;1.63;1.30;;;9.00;99.90;;;;;;4130219;28;20054;-62
2022/12/11 09:25:03;;;;;;;1.77;1.17;;;9.00;99.90;;;;;;4129554;28;20042;-62
2022/12/11 09:27:05;;;;;;;1.47;1.07;;;9.10;99.90;;;;;;4144401;28;20096;-61
2022/12/11 09:29:07;;;;;;;1.60;0.87;;;9.10;99.90;;;;;;4129570;28;20022;-60
2022/12/11 09:31:23;;;;;;;2.53;1.97;;;9.10;99.90;;;;;;4129723;28;20026;-63
2022/12/11 09:33:24;;;;;;;2.03;1.70;;;9.10;99.90;;;;;;4130049;28;20042;-61
2022/12/11 09:35:25;;;;;;;2.67;1.20;;;9.20;99.90;;;;;;4128824;28;20069;-61
2022/12/11 09:37:26;;;;;;;2.50;1.20;;;9.20;99.90;;;;;;4129734;28;20042;-61
2022/12/11 09:39:27;;;;;;;2.30;0.80;;;9.20;99.90;;;;;;4129207;28;20450;-62
2022/12/11 09:41:35;;;;;;;1.07;0.50;;;9.20;99.90;;;;;;4129788;28;21140;-60
2022/12/11 09:43:44;;;;;;;1.50;0.60;;;9.10;99.90;;;;;;4129660;28;20094;-61
2022/12/11 09:45:45;;;;;;;1.80;0.90;;;9.00;99.90;;;;;;4130438;28;20426;-61
2022/12/11 09:47:51;;;;;;;1.73;1.03;;;9.00;99.90;;;;;;4129207;28;20537;-62
2022/12/11 09:50:08;;;;;;;2.47;1.10;;;9.00;99.90;;;;;;4129479;28;20046;-61
2022/12/11 09:52:16;;;;;;;2.67;1.10;;;9.00;99.90;;;;;;4127126;28;20101;-62
2022/12/11 09:54:17;;;;;;;4.00;2.00;;;9.10;99.90;;;;;;4128895;28;20054;-60
2022/12/11 09:56:44;;;;;;;1.47;1.00;;;9.10;99.90;;;;;;4128431;28;20026;-64
2022/12/11 09:59:15;;;;;;;1.33;0.93;;;9.20;99.90;;;;;;4130330;28;20034;-63
2022/12/11 10:01:21;;;;;;;0.93;0.57;;;9.20;99.90;;;;;;4129103;28;20166;-64
2022/12/11 10:03:57;;;;;;;1.70;0.90;;;9.30;99.90;;;;;;4130129;28;20112;-62
2022/12/11 10:06:17;;;;;;;1.23;0.87;;;9.30;99.90;;;;;;4125490;28;20096;-62
2022/12/11 10:08:42;;;;;;;4.63;2.65;;;9.40;99.90;;;;;;4129225;28;20425;-63
2022/12/11 10:10:58;;;;;;;2.20;2.00;;;9.50;99.90;;;;;;4119065;28;20105;-62
2022/12/11 10:13:27;;;;;;;4.97;2.37;;;9.50;99.90;;;;;;4129439;28;20361;-62
2022/12/11 10:15:50;;;;;;;1.67;1.10;;;9.60;99.90;;;;;;4129739;28;20422;-64
2022/12/11 10:17:55;;;;;;;2.67;1.90;;;9.70;99.90;;;;;;4128647;28;20557;-62
2022/12/11 10:20:04;;;;;;;3.20;0.97;;;9.70;99.90;;;;;;4129600;28;20081;-61
2022/12/11 10:22:16;;;;;;;2.40;1.07;;;9.70;99.90;;;;;;4128477;28;20035;-62
2022/12/11 10:24:26;;;;;;;4.00;0.97;;;9.70;99.90;;;;;;4129182;28;20069;-64
2022/12/11 10:26:28;;;;;;;2.10;1.43;;;9.80;99.90;;;;;;4128595;28;20030;-63
2022/12/11 10:28:29;;;;;;;3.70;1.03;;;9.80;99.90;;;;;;4129525;28;20120;-63
2022/12/11 10:30:39;;;;;;;0.73;0.57;;;9.80;99.90;;;;;;4128488;28;20023;-62
2022/12/11 10:32:52;;;;;;;1.17;0.57;;;9.80;99.90;;;;;;4128745;28;20541;-62
2022/12/11 10:35:01;;;;;;;5.43;0.90;;;9.70;99.90;;;;;;4128403;28;20420;-66
2022/12/11 10:37:02;;;;;;;2.97;1.20;;;9.70;99.90;;;;;;4128967;28;20054;-64
2022/12/11 10:39:13;;;;;;;0.60;0.40;;;9.70;99.90;;;;;;4128564;28;20038;-63
2022/12/11 10:41:23;;;;;;;1.50;0.30;;;9.50;99.90;;;;;;4129183;28;20076;-61
2022/12/11 10:43:45;;;;;;;12.38;1.17;;;9.10;99.90;;;;;;4128954;28;20383;-61
2022/12/11 10:45:53;;;;;;;0.93;0.67;;;8.70;99.90;;;;;;4128322;28;20093;-60
2022/12/11 10:48:09;;;;;;;0.93;0.40;;;8.40;99.90;;;;;;4128262;28;20030;-62
2022/12/11 10:50:24;;;;;;;0.80;0.60;;;8.20;99.90;;;;;;4129177;28;20093;-60
2022/12/11 10:52:37;;;;;;;1.20;0.60;;;8.00;99.90;;;;;;4127333;28;20088;-63